Airfield :
LOGIN :

Register | Disclaimer

   EN    FR    IT 

 










Legend :    VFR   Marginal VFR   IFR   Intensive IFR   Very Intensive IFR
Visi :
Ceiling :
>= 8 km
>= 3000ft
5 to 8 km
1000 to 3000 ft
1500m to 5 km
500 to 1000 ft
800 to 1500m
200 to 500 ft
< 800m
< 200 ft
Symbols :   Thunderstorms  Fog  Heavy snow  Heavy precipitations  Wind > 20 kt
SIGMETs :     Misc.  Thunderstorms  Icing  Turbulence  Mountain Waves  Volcanic Ashes






- Airport Elevation : 587 ft
- IATA code : XCR


LFOK - Chalons Vatry

CURRENT METAR :
  • 311830Z AUTO 23008KT 9999 ///TCU 20/12 Q1011 TEMPO 4000 SHRA BKN050CB

EXPIRED METARs :
  • 311800Z AUTO 24009KT CAVOK 21/12 Q1011 TEMPO 4000 SHRA BKN050CB
  • 311730Z AUTO 24009KT 9999 FEW047 BKN090 BKN170 21/12 Q1011 TEMPO 4000 SHRA BKN050CB
  • 311700Z AUTO 24010KT CAVOK 21/12 Q1011 TEMPO VRB15G25KT 2000 SHRA BKN030CB
  • 311630Z AUTO 23009KT CAVOK 21/12 Q1011 TEMPO VRB15G25KT 2000 SHRA BKN030CB
  • 311600Z AUTO 23010KT 210V270 CAVOK 21/12 Q1012 TEMPO 4000 SHRA BKN040TCU

TAF TAF LFOK
Valid from the 31 at 12:00 until the 01 at 12:00 UTC


311100Z 3112/0112 25012KT 9999 SCT040
TEMPO 3112/3122 4000 SHRA BKN040TCU
PROB30 3118/3121 VRB15G25KT 2000 SHRA BKN030CB
BECMG 3121/3123 VRB03KT
BECMG 0107/0110 26010KT
TEMPO 0111/0112 3000 SHRA BKN040CB



MET'MAP, your aeronautical weather chart ! - Copyright ORBIFLY December 2007 - Disclaimer

ORBIFLY MET'MAP TEAM :

Programming & Development : Alexandra Zaïnal
Concept & original design : Baudouin d'Aumeries
Assistance for programming : Marc-Olivier Méhu
Technical & hardware support : Manuel Goepfert

Contact : metmap@orbifly.com




SOURCES & CREDITS :

   NOAA